Terminal Aerodrome Forecast
Issued by NWS Omaha/Valley, NE

Home | Current Version | Previous Version | Text Only | Print | Product List | Glossary Off
Versions: 1 2 3 4 5 6 7 8 9 10 11 12 13 14 15 16 17 18 19 20 21 22 23 24 25 26 27 28 29 30 31 32 33 34 35 36 37 38

000
FTUS43 KOAX 151120
TAFOFK
TAF
KOFK 151120Z 1512/1612 12010KT P6SM SCT120
     FM151400 13012KT P6SM BKN090
     FM151600 14014G24KT P6SM SCT025 BKN060
     FM160000 13011KT P6SM BKN025
     FM160400 13007KT 4SM BR SCT007 OVC015=

USA.gov is the U.S. government's official web portal to all federal, state and local government web resources and services.